Time;durP1;ratioP1;P1;durP2;ratioP2;P2;SDS_P1;SDS_P2;PMS_P1;PMS_P2;Temp;Humidity;BMP_temperature;BMP_pressure;BME280_temperature;BME280_humidity;BME280_pressure;Samples;Min_cycle;Max_cycle;Signal;HPM_P1;HPM_P2
2022/08/18 00:02:24;;;;;;;34.83;32.75;;;20.60;72.10;;;;;;5048949;28;20056;-78
2022/08/18 00:04:50;;;;;;;35.13;33.15;;;20.60;71.90;;;;;;5032940;28;20045;-78
2022/08/18 00:07:19;;;;;;;35.58;33.50;;;20.60;72.20;;;;;;5049867;28;20029;-78
2022/08/18 00:09:46;;;;;;;33.83;31.92;;;20.60;72.20;;;;;;5049847;28;20380;-78
2022/08/18 00:12:15;;;;;;;35.00;32.90;;;20.60;72.20;;;;;;5051067;28;20033;-78
2022/08/18 00:14:41;;;;;;;32.35;30.45;;;20.50;72.20;;;;;;5049717;28;20040;-78
2022/08/18 00:17:07;;;;;;;31.05;29.27;;;20.50;72.50;;;;;;5049074;28;20029;-78
2022/08/18 00:19:33;;;;;;;32.40;30.20;;;20.40;72.60;;;;;;5049372;28;20048;-78
2022/08/18 00:21:59;;;;;;;31.75;30.02;;;20.40;72.80;;;;;;5049656;28;20021;-79
2022/08/18 00:24:26;;;;;;;31.50;29.55;;;20.40;72.80;;;;;;5049634;28;20040;-78
2022/08/18 00:26:53;;;;;;;32.60;30.85;;;20.30;73.30;;;;;;5033277;28;20056;-78
2022/08/18 00:29:19;;;;;;;30.90;29.05;;;20.30;73.40;;;;;;5049794;28;20031;-79
2022/08/18 00:31:45;;;;;;;31.45;29.75;;;20.30;73.30;;;;;;5048605;28;20399;-78
2022/08/18 00:34:11;;;;;;;32.75;30.95;;;20.20;73.20;;;;;;5050669;28;20049;-78
2022/08/18 00:36:37;;;;;;;32.15;30.45;;;20.20;73.50;;;;;;5032470;28;20041;-78
2022/08/18 00:39:03;;;;;;;32.35;30.55;;;20.20;73.40;;;;;;5050765;28;20025;-78
2022/08/18 00:41:30;;;;;;;32.72;30.90;;;20.20;73.70;;;;;;5049334;28;20091;-77
2022/08/18 00:43:59;;;;;;;33.92;31.92;;;20.20;73.60;;;;;;5043293;28;20033;-78
2022/08/18 00:46:30;;;;;;;34.28;32.25;;;20.20;73.70;;;;;;5021561;28;20511;-78
2022/08/18 00:48:56;;;;;;;33.95;32.13;;;20.20;73.70;;;;;;5032922;28;20045;-78
2022/08/18 00:51:27;;;;;;;34.10;31.88;;;20.30;73.70;;;;;;5032489;28;20041;-78
2022/08/18 00:54:01;;;;;;;34.35;32.03;;;20.20;73.70;;;;;;5049391;28;20467;-78
2022/08/18 00:56:32;;;;;;;31.80;29.85;;;20.20;73.60;;;;;;5049319;28;20033;-78
2022/08/18 00:59:37;;;;;;;29.80;28.10;;;20.20;73.70;;;;;;5049053;28;20036;-78
2022/08/18 01:02:04;;;;;;;29.60;27.83;;;20.10;74.00;;;;;;5027715;28;20411;-78
2022/08/18 01:04:41;;;;;;;30.60;28.60;;;20.10;74.40;;;;;;5028018;28;20128;-78
2022/08/18 01:07:11;;;;;;;29.52;27.77;;;20.00;74.60;;;;;;5010199;28;20590;-78
2022/08/18 01:09:37;;;;;;;29.88;27.90;;;19.90;75.50;;;;;;5027977;28;20052;-78
2022/08/18 01:12:04;;;;;;;29.02;27.02;;;19.90;75.30;;;;;;5011641;28;20040;-78
2022/08/18 01:14:30;;;;;;;29.30;27.55;;;19.80;75.20;;;;;;5011258;28;20045;-78
2022/08/18 01:22:48;;;;;;;27.05;25.25;;;19.80;75.00;;;;;;5001273;28;20516;-78
2022/08/18 01:28:02;;;;;;;27.85;26.05;;;19.80;75.20;;;;;;5006744;28;20143;-78
2022/08/18 01:30:29;;;;;;;27.20;25.50;;;19.80;75.10;;;;;;4988474;28;20038;-78
2022/08/18 01:32:55;;;;;;;29.95;28.05;;;19.80;75.00;;;;;;5005230;28;20034;-78
2022/08/18 01:35:24;;;;;;;30.67;28.65;;;19.80;75.30;;;;;;4991730;28;20054;-78
2022/08/18 01:37:51;;;;;;;29.10;27.30;;;19.80;74.90;;;;;;4959718;28;20035;-78
2022/08/18 01:40:18;;;;;;;27.73;25.83;;;19.80;74.90;;;;;;4975741;28;20043;-78
2022/08/18 01:42:45;;;;;;;27.05;25.25;;;19.80;75.10;;;;;;4991501;28;20405;-78
2022/08/18 01:45:15;;;;;;;28.75;26.63;;;19.70;75.30;;;;;;4988133;28;20042;-78
2022/08/18 01:47:41;;;;;;;27.47;25.57;;;19.80;75.20;;;;;;4991146;28;20038;-78
2022/08/18 01:50:09;;;;;;;28.42;26.58;;;19.80;75.10;;;;;;4959604;28;20047;-78
2022/08/18 01:52:35;;;;;;;27.55;25.75;;;19.80;75.00;;;;;;4959894;28;20463;-78
2022/08/18 01:55:01;;;;;;;26.55;24.75;;;19.70;76.10;;;;;;4977673;28;20049;-77
2022/08/18 01:57:28;;;;;;;26.83;24.73;;;19.70;75.50;;;;;;5035481;28;20044;-79
2022/08/18 01:59:54;;;;;;;27.38;25.20;;;19.70;75.30;;;;;;5052097;28;20513;-78
2022/08/18 02:02:25;;;;;;;26.33;24.52;;;19.70;75.40;;;;;;5034623;28;20037;-78
2022/08/18 02:04:53;;;;;;;26.63;24.67;;;19.70;75.70;;;;;;5052012;28;20032;-78
2022/08/18 02:07:19;;;;;;;28.50;26.33;;;19.70;75.60;;;;;;5052023;28;20025;-78
2022/08/18 02:09:45;;;;;;;29.17;26.80;;;19.70;76.00;;;;;;5035273;28;20029;-78
2022/08/18 02:12:11;;;;;;;30.52;28.10;;;19.70;76.10;;;;;;5051480;28;20025;-78
2022/08/18 02:14:38;;;;;;;33.90;31.00;;;19.70;76.80;;;;;;5035514;28;20561;-78
2022/08/18 02:17:05;;;;;;;35.05;32.28;;;19.70;77.30;;;;;;5051406;28;20504;-78
2022/08/18 02:19:41;;;;;;;35.33;32.42;;;19.70;76.90;;;;;;5051690;28;20036;-78
2022/08/18 02:22:08;;;;;;;38.20;34.92;;;19.70;77.10;;;;;;5035309;28;20044;-78
2022/08/18 02:24:34;;;;;;;38.30;35.05;;;19.70;77.10;;;;;;5035067;28;20041;-78
2022/08/18 02:27:00;;;;;;;35.17;31.83;;;19.80;77.30;;;;;;5051353;28;20044;-78
2022/08/18 02:29:26;;;;;;;37.65;34.50;;;19.80;77.50;;;;;;5035091;28;20053;-78
2022/08/18 02:31:53;;;;;;;38.35;34.80;;;19.80;77.40;;;;;;5050984;28;20032;-78
2022/08/18 02:34:19;;;;;;;39.33;35.75;;;19.80;77.20;;;;;;5035061;28;20506;-78
2022/08/18 02:36:45;;;;;;;39.78;36.00;;;19.80;77.50;;;;;;5034791;28;20037;-78
2022/08/18 02:39:11;;;;;;;39.30;35.47;;;19.80;77.60;;;;;;5045956;28;20029;-78
2022/08/18 02:41:37;;;;;;;41.53;36.83;;;19.80;77.80;;;;;;5014484;28;20030;-78
2022/08/18 02:44:05;;;;;;;40.65;36.38;;;19.90;78.20;;;;;;5038535;28;20328;-77
2022/08/18 02:46:31;;;;;;;38.88;34.97;;;19.90;78.80;;;;;;5051870;28;20037;-78
2022/08/18 02:49:01;;;;;;;41.10;37.05;;;19.90;78.40;;;;;;5034575;28;20037;-78
2022/08/18 02:51:27;;;;;;;43.17;38.85;;;19.90;78.60;;;;;;5034555;28;20067;-78
2022/08/18 02:53:53;;;;;;;44.90;40.40;;;20.00;78.40;;;;;;5034529;28;20037;-78
2022/08/18 02:56:26;;;;;;;44.20;39.58;;;20.00;78.40;;;;;;5034054;28;20044;-78
2022/08/18 02:59:00;;;;;;;42.75;38.70;;;20.00;78.50;;;;;;5035217;28;20460;-78
2022/08/18 03:01:30;;;;;;;42.80;38.50;;;20.10;78.50;;;;;;5050399;28;20036;-78
2022/08/18 03:03:56;;;;;;;40.60;36.65;;;20.10;78.50;;;;;;5034580;28;20025;-78
2022/08/18 03:06:23;;;;;;;38.80;34.95;;;20.20;78.40;;;;;;5034308;28;20029;-78
2022/08/18 03:08:50;;;;;;;37.75;33.88;;;20.20;78.30;;;;;;5050682;28;20116;-78
2022/08/18 03:11:22;;;;;;;38.20;34.75;;;20.20;78.70;;;;;;5050354;28;20025;-78
2022/08/18 03:13:48;;;;;;;38.97;35.00;;;20.20;78.20;;;;;;5034936;28;20021;-78
2022/08/18 03:16:15;;;;;;;37.97;34.33;;;20.10;78.50;;;;;;5033611;28;20056;-78
2022/08/18 03:18:42;;;;;;;37.80;34.30;;;20.20;78.40;;;;;;5017534;28;20487;-78
2022/08/18 03:21:10;;;;;;;37.22;33.65;;;20.20;78.20;;;;;;5050596;28;20048;-78
2022/08/18 03:23:39;;;;;;;36.85;33.38;;;20.20;78.30;;;;;;5050458;28;20029;-77
2022/08/18 03:26:06;;;;;;;36.63;33.00;;;20.20;78.20;;;;;;5050332;28;20033;-78
2022/08/18 03:28:33;;;;;;;37.65;33.63;;;20.20;78.10;;;;;;5033934;28;20033;-78
2022/08/18 03:30:59;;;;;;;36.08;32.60;;;20.20;78.00;;;;;;5033477;28;20483;-78
2022/08/18 03:33:25;;;;;;;39.08;35.03;;;20.20;78.10;;;;;;5050234;28;20021;-78
2022/08/18 03:35:51;;;;;;;37.80;34.15;;;20.20;79.10;;;;;;5033401;28;20075;-78
2022/08/18 03:38:17;;;;;;;38.45;35.03;;;20.20;78.20;;;;;;5033769;28;20052;-78
2022/08/18 03:40:50;;;;;;;37.20;33.90;;;20.20;78.20;;;;;;5049809;28;20037;-78
2022/08/18 03:43:16;;;;;;;36.95;33.55;;;20.20;78.40;;;;;;5049495;28;20017;-78
2022/08/18 03:45:42;;;;;;;37.10;33.55;;;20.20;78.20;;;;;;5032951;28;20080;-78
2022/08/18 03:48:09;;;;;;;38.60;35.05;;;20.20;78.20;;;;;;5050064;28;20045;-78
2022/08/18 03:50:36;;;;;;;38.90;35.30;;;20.20;78.60;;;;;;5051049;28;20025;-78
2022/08/18 03:53:04;;;;;;;39.17;35.38;;;20.30;78.40;;;;;;5049702;28;20033;-78
2022/08/18 03:55:30;;;;;;;39.53;35.63;;;20.30;78.50;;;;;;5033661;28;20053;-78
2022/08/18 03:57:58;;;;;;;39.00;35.20;;;20.30;78.60;;;;;;5050022;28;20040;-77
2022/08/18 04:00:26;;;;;;;37.47;34.08;;;20.30;78.50;;;;;;5032956;28;20033;-78
2022/08/18 04:02:52;;;;;;;37.75;34.30;;;20.30;78.70;;;;;;5049984;28;20025;-78
2022/08/18 04:05:18;;;;;;;41.53;37.70;;;20.30;78.60;;;;;;5049839;28;20048;-78
2022/08/18 04:07:44;;;;;;;39.97;36.35;;;20.30;78.80;;;;;;5049481;28;20460;-78
2022/08/18 04:10:10;;;;;;;41.00;37.10;;;20.30;79.10;;;;;;5049600;28;20033;-78
2022/08/18 04:12:37;;;;;;;41.67;37.33;;;20.30;78.70;;;;;;5049841;28;20033;-78
2022/08/18 04:15:03;;;;;;;40.17;36.38;;;20.30;78.90;;;;;;5049343;28;20037;-78
2022/08/18 04:17:29;;;;;;;43.33;38.80;;;20.30;79.00;;;;;;5050868;28;20029;-78
2022/08/18 04:19:56;;;;;;;42.15;38.38;;;20.40;78.70;;;;;;5049836;28;20036;-78
2022/08/18 04:22:23;;;;;;;44.15;39.88;;;20.30;79.00;;;;;;5049225;28;20033;-78
2022/08/18 04:24:50;;;;;;;43.80;39.50;;;20.30;78.70;;;;;;5049487;28;20017;-78
2022/08/18 04:27:16;;;;;;;43.30;39.10;;;20.30;79.10;;;;;;5032920;28;20048;-78
2022/08/18 04:29:42;;;;;;;43.72;39.60;;;20.30;78.90;;;;;;5049628;28;20032;-78
2022/08/18 04:32:08;;;;;;;44.38;39.63;;;20.30;79.10;;;;;;5032165;28;20033;-78
2022/08/18 04:34:34;;;;;;;44.15;39.72;;;20.30;79.20;;;;;;5049290;28;20036;-78
2022/08/18 04:37:01;;;;;;;45.00;40.42;;;20.40;79.10;;;;;;5032453;28;20045;-77
2022/08/18 04:39:27;;;;;;;44.50;40.05;;;20.40;79.00;;;;;;5050610;28;20029;-78
2022/08/18 04:41:53;;;;;;;44.67;39.97;;;20.40;78.80;;;;;;5030805;28;20368;-78
2022/08/18 04:44:20;;;;;;;45.03;40.67;;;20.40;79.30;;;;;;5040194;28;20028;-78
2022/08/18 04:46:48;;;;;;;46.72;41.65;;;20.30;79.80;;;;;;5008428;28;20056;-78
2022/08/18 04:49:15;;;;;;;45.42;40.85;;;20.30;79.60;;;;;;5033263;28;20041;-78
2022/08/18 04:54:37;;;;;;;44.22;40.00;;;20.30;79.90;;;;;;5052973;28;20384;-78
2022/08/18 04:57:10;;;;;;;44.80;40.38;;;20.20;80.50;;;;;;5049130;28;20037;-78
2022/08/18 04:59:37;;;;;;;43.90;39.55;;;20.10;81.10;;;;;;5032511;28;20400;-78
2022/08/18 05:02:06;;;;;;;44.67;40.22;;;20.00;81.80;;;;;;5034400;28;20044;-78
2022/08/18 05:04:33;;;;;;;44.03;39.45;;;19.70;83.00;;;;;;5037179;28;20033;-78
2022/08/18 05:06:59;;;;;;;43.55;39.28;;;19.60;83.50;;;;;;5052639;28;20054;-79
2022/08/18 05:09:25;;;;;;;43.85;39.65;;;19.60;83.00;;;;;;5053110;28;20025;-78
2022/08/18 05:11:52;;;;;;;44.40;40.10;;;19.60;83.20;;;;;;5052821;28;20048;-78
2022/08/18 05:14:18;;;;;;;42.25;38.22;;;19.50;83.10;;;;;;5052968;28;20498;-78
2022/08/18 05:16:45;;;;;;;42.80;38.33;;;19.40;83.80;;;;;;5052417;28;20040;-79
2022/08/18 05:19:11;;;;;;;42.20;38.17;;;19.40;83.60;;;;;;5053011;28;20411;-78
2022/08/18 05:21:40;;;;;;;45.88;41.30;;;19.50;83.10;;;;;;5052490;28;20391;-77
2022/08/18 05:24:07;;;;;;;47.80;43.05;;;19.50;84.00;;;;;;5052838;28;20093;-79
2022/08/18 05:26:34;;;;;;;48.85;43.72;;;19.50;84.50;;;;;;5035951;28;20392;-78
2022/08/18 05:29:00;;;;;;;49.20;44.03;;;19.50;84.80;;;;;;5052658;28;20470;-78
2022/08/18 05:31:27;;;;;;;48.13;43.20;;;19.40;84.80;;;;;;5052067;28;20025;-78
2022/08/18 05:33:54;;;;;;;48.72;43.78;;;19.50;84.80;;;;;;5052669;28;20036;-78
2022/08/18 05:36:23;;;;;;;47.90;43.03;;;19.40;84.90;;;;;;5052012;28;20040;-78
2022/08/18 05:39:07;;;;;;;50.03;44.78;;;19.30;85.50;;;;;;5052323;28;20093;-79
2022/08/18 05:41:35;;;;;;;50.50;45.47;;;19.40;85.70;;;;;;5032578;28;20030;-78
2022/08/18 05:44:02;;;;;;;50.50;45.58;;;19.30;85.80;;;;;;5019607;28;20021;-78
2022/08/18 05:46:42;;;;;;;51.15;46.13;;;19.30;85.80;;;;;;5041362;28;20383;-79
2022/08/18 05:49:09;;;;;;;48.33;43.70;;;19.30;86.20;;;;;;5036367;28;20049;-78
2022/08/18 05:51:41;;;;;;;48.47;43.58;;;19.30;85.60;;;;;;5052521;28;20033;-78
2022/08/18 05:56:54;;;;;;;50.95;45.90;;;19.50;84.80;;;;;;5054779;28;20048;-78
2022/08/18 05:59:30;;;;;;;58.97;53.47;;;19.60;84.40;;;;;;5052225;28;20021;-78
2022/08/18 06:02:31;;;;;;;56.67;51.10;;;19.70;84.00;;;;;;5051814;28;20044;-78
2022/08/18 06:05:00;;;;;;;60.80;54.88;;;19.70;83.80;;;;;;5051778;28;20032;-78
2022/08/18 06:07:54;;;;;;;61.63;56.03;;;19.80;83.40;;;;;;5052064;28;20024;-78
2022/08/18 06:10:20;;;;;;;58.97;53.25;;;19.90;83.10;;;;;;5051745;28;20550;-78
2022/08/18 06:12:57;;;;;;;60.75;54.97;;;19.90;82.90;;;;;;5051405;28;20040;-78
2022/08/18 06:15:38;;;;;;;57.08;51.72;;;19.80;83.00;;;;;;5034534;28;20048;-78
2022/08/18 06:18:26;;;;;;;52.95;47.97;;;19.70;83.60;;;;;;5051190;28;20428;-78
2022/08/18 06:21:21;;;;;;;57.72;52.67;;;19.50;84.40;;;;;;5034817;28;20048;-78
2022/08/18 06:24:06;;;;;;;56.40;51.50;;;19.50;84.80;;;;;;5051464;28;20048;-78
2022/08/18 06:26:44;;;;;;;55.42;50.20;;;19.40;85.20;;;;;;5052956;28;20032;-78
2022/08/18 06:29:25;;;;;;;58.92;53.78;;;19.30;85.00;;;;;;5052987;28;20040;-78
2022/08/18 06:32:13;;;;;;;57.95;52.75;;;19.20;85.50;;;;;;5050299;28;20025;-78
2022/08/18 06:35:07;;;;;;;54.65;49.67;;;19.20;86.00;;;;;;5050435;28;20060;-77
2022/08/18 06:40:40;;;;;;;56.65;51.65;;;19.40;85.10;;;;;;5039120;28;20053;-77
2022/08/18 06:43:10;;;;;;;56.17;51.30;;;19.50;84.80;;;;;;5015037;28;20025;-77
2022/08/18 06:45:37;;;;;;;59.83;54.37;;;19.50;84.40;;;;;;5017826;28;20044;-79
2022/08/18 06:48:09;;;;;;;50.53;45.70;;;19.40;84.50;;;;;;5034035;28;20040;-78
2022/08/18 06:50:55;;;;;;;44.85;40.58;;;19.40;84.60;;;;;;5051390;28;20029;-79
2022/08/18 06:53:22;;;;;;;47.72;43.17;;;19.40;84.30;;;;;;5036152;28;20056;-79
2022/08/18 06:55:48;;;;;;;46.63;42.55;;;19.40;84.60;;;;;;5034370;28;20048;-77
2022/08/18 06:58:14;;;;;;;50.88;45.70;;;19.40;84.50;;;;;;5034652;28;20044;-78
2022/08/18 07:01:04;;;;;;;47.35;42.88;;;19.50;84.10;;;;;;5051770;28;20032;-79
2022/08/18 07:03:33;;;;;;;48.35;43.78;;;19.50;84.20;;;;;;5050471;28;20041;-78
2022/08/18 07:06:01;;;;;;;53.58;48.65;;;19.40;84.80;;;;;;5051086;28;20052;-78
2022/08/18 07:08:35;;;;;;;49.35;44.40;;;19.50;84.70;;;;;;5050412;28;20041;-78
2022/08/18 07:11:16;;;;;;;44.38;40.08;;;19.60;84.10;;;;;;5018415;28;20044;-79
2022/08/18 07:13:44;;;;;;;41.60;37.47;;;19.60;83.40;;;;;;5050717;28;20041;-79
2022/08/18 07:16:30;;;;;;;40.80;36.78;;;19.60;83.50;;;;;;5033414;28;20037;-79
2022/08/18 07:19:19;;;;;;;41.40;37.40;;;19.50;83.50;;;;;;5034653;28;20411;-78
2022/08/18 07:21:46;;;;;;;42.92;38.42;;;19.50;83.60;;;;;;5019393;28;20045;-79
2022/08/18 07:24:26;;;;;;;42.40;37.90;;;19.50;83.60;;;;;;5033664;28;20105;-79
2022/08/18 07:27:14;;;;;;;40.35;36.20;;;19.70;83.00;;;;;;5034291;28;20483;-79
2022/08/18 07:29:58;;;;;;;41.55;37.17;;;19.80;82.60;;;;;;5034088;28;20025;-79
2022/08/18 07:32:30;;;;;;;42.85;38.47;;;19.90;82.10;;;;;;5018684;28;20052;-78
2022/08/18 07:34:58;;;;;;;45.47;40.88;;;19.90;81.90;;;;;;5030769;28;20392;-79
2022/08/18 07:37:29;;;;;;;44.70;40.03;;;19.80;82.00;;;;;;5030378;28;20036;-78
2022/08/18 07:40:06;;;;;;;41.85;37.42;;;19.80;82.30;;;;;;5024589;28;20037;-79
2022/08/18 07:42:59;;;;;;;42.53;38.22;;;19.70;82.80;;;;;;5050176;28;20029;-79
2022/08/18 07:45:37;;;;;;;42.85;38.67;;;19.70;82.80;;;;;;5031599;28;20038;-79
2022/08/18 07:48:12;;;;;;;41.40;37.20;;;19.70;82.60;;;;;;5050089;28;20040;-79
2022/08/18 07:50:51;;;;;;;42.92;38.65;;;19.70;82.40;;;;;;5051497;28;20368;-79
2022/08/18 07:53:17;;;;;;;40.58;36.92;;;19.80;81.60;;;;;;5050215;28;20357;-79
2022/08/18 07:55:44;;;;;;;42.67;38.67;;;19.90;81.50;;;;;;5049670;28;20412;-79
2022/08/18 07:58:26;;;;;;;42.03;37.90;;;19.80;81.40;;;;;;5033368;28;20406;-79
2022/08/18 08:00:55;;;;;;;43.13;39.05;;;19.80;81.60;;;;;;5048902;28;20044;-79
2022/08/18 08:03:38;;;;;;;44.28;40.00;;;19.80;81.60;;;;;;5049684;28;20063;-79
2022/08/18 08:06:11;;;;;;;40.22;36.22;;;20.00;81.20;;;;;;5049833;28;20036;-79
2022/08/18 08:08:48;;;;;;;39.63;35.58;;;20.00;80.90;;;;;;5050085;28;20025;-79
2022/08/18 08:11:39;;;;;;;39.35;35.58;;;19.90;81.10;;;;;;5049765;28;20029;-79
2022/08/18 08:14:21;;;;;;;;;;;19.90;81.20;;;;;;5049679;28;20041;-78
2022/08/18 08:17:04;;;;;;;38.85;34.92;;;19.80;81.20;;;;;;5050299;28;19944;-79
2022/08/18 08:19:45;;;;;;;44.00;39.65;;;19.80;81.70;;;;;;5049861;28;20025;-79
2022/08/18 08:22:15;;;;;;;;;;;19.80;81.20;;;;;;5051296;28;20475;-79
2022/08/18 08:25:00;;;;;;;40.17;36.17;;;19.80;81.10;;;;;;5049799;28;20371;-79
2022/08/18 08:27:47;;;;;;;39.92;36.03;;;19.90;81.10;;;;;;5049455;28;20041;-79
2022/08/18 08:30:17;;;;;;;41.85;37.83;;;20.00;81.10;;;;;;5048430;28;20044;-79
2022/08/18 08:32:55;;;;;;;37.88;34.35;;;20.00;80.60;;;;;;5033178;28;20044;-79
2022/08/18 08:35:56;;;;;;;40.55;36.65;;;20.00;80.40;;;;;;5049108;28;20032;-79
2022/08/18 08:38:26;;;;;;;43.25;39.20;;;20.00;80.40;;;;;;5046629;28;20037;-79
2022/08/18 08:40:53;;;;;;;41.60;37.93;;;20.00;80.30;;;;;;5036775;28;20029;-79
2022/08/18 08:43:34;;;;;;;40.53;36.83;;;19.90;80.50;;;;;;5052369;28;20036;-78
2022/08/18 08:46:00;;;;;;;40.92;37.08;;;19.90;80.60;;;;;;5007292;28;20029;-79
2022/08/18 08:48:28;;;;;;;40.95;37.30;;;20.00;80.80;;;;;;5054426;28;20049;-79
2022/08/18 08:51:09;;;;;;;42.45;38.78;;;20.10;80.10;;;;;;5036655;28;20040;-79
2022/08/18 08:53:48;;;;;;;43.53;40.08;;;20.20;79.90;;;;;;5036701;28;20033;-78
2022/08/18 08:56:15;;;;;;;41.13;37.83;;;20.30;78.10;;;;;;5036402;28;20068;-79
2022/08/18 08:58:43;;;;;;;46.92;43.22;;;20.40;78.00;;;;;;5036623;28;20559;-79
2022/08/18 09:01:31;;;;;;;41.58;38.20;;;20.60;78.30;;;;;;5035764;28;20044;-79
2022/08/18 09:04:11;;;;;;;40.78;37.35;;;20.80;77.80;;;;;;5039087;28;20368;-78
2022/08/18 09:06:49;;;;;;;40.10;36.80;;;20.90;77.20;;;;;;5036432;28;20041;-79
2022/08/18 09:09:37;;;;;;;37.30;34.22;;;20.80;76.10;;;;;;5053232;28;20040;-79
2022/08/18 09:12:15;;;;;;;33.55;30.67;;;20.90;76.70;;;;;;5038008;28;20514;-79
2022/08/18 09:15:00;;;;;;;35.08;31.98;;;21.30;75.40;;;;;;5036949;28;20049;-79
2022/08/18 09:17:54;;;;;;;33.67;30.88;;;21.50;75.60;;;;;;5052108;28;20070;-79
2022/08/18 09:20:29;;;;;;;35.45;32.50;;;21.70;73.90;;;;;;5037695;28;20037;-79
2022/08/18 09:23:08;;;;;;;37.20;34.15;;;21.80;73.30;;;;;;5054056;28;20025;-79
2022/08/18 09:25:38;;;;;;;33.65;31.02;;;21.80;73.70;;;;;;5036038;28;20033;-79
2022/08/18 09:28:52;;;;;;;37.63;34.47;;;22.00;74.30;;;;;;5053746;28;20036;-79
2022/08/18 09:31:18;;;;;;;38.10;34.80;;;22.20;71.10;;;;;;5051875;28;20025;-79
2022/08/18 09:34:07;;;;;;;36.80;33.97;;;22.20;71.90;;;;;;5052639;28;20040;-79
2022/08/18 09:36:37;;;;;;;38.72;35.63;;;22.40;70.00;;;;;;5035942;28;20123;-79
2022/08/18 09:42:16;;;;;;;40.05;36.85;;;22.80;69.10;;;;;;5055311;28;20383;-76
2022/08/18 09:44:45;;;;;;;40.65;37.55;;;23.00;68.80;;;;;;5023461;28;20392;-79
2022/08/18 09:47:20;;;;;;;42.80;39.35;;;23.20;67.80;;;;;;5046228;28;20052;-79
2022/08/18 09:49:52;;;;;;;43.72;40.38;;;23.40;67.70;;;;;;5036689;28;20040;-79
2022/08/18 09:52:21;;;;;;;43.00;39.90;;;23.50;67.30;;;;;;5052303;28;20029;-79
2022/08/18 09:54:59;;;;;;;46.60;43.20;;;23.80;67.50;;;;;;5052105;28;20041;-77
2022/08/18 09:57:35;;;;;;;46.90;43.38;;;24.00;67.10;;;;;;5036136;28;20048;-77
2022/08/18 10:00:13;;;;;;;46.28;42.80;;;24.10;66.10;;;;;;5052283;28;20044;-79
2022/08/18 10:02:40;;;;;;;49.28;45.70;;;24.00;65.90;;;;;;5052694;28;20040;-79
2022/08/18 10:05:18;;;;;;;47.35;43.75;;;23.90;65.70;;;;;;5053485;28;20040;-79
2022/08/18 10:07:48;;;;;;;48.30;44.80;;;23.40;66.80;;;;;;5051430;28;20499;-79
2022/08/18 10:10:22;;;;;;;45.40;42.08;;;23.50;67.10;;;;;;5051737;28;20029;-79
2022/08/18 10:13:16;;;;;;;44.53;41.03;;;23.80;66.50;;;;;;5035169;28;20048;-76
2022/08/18 10:16:00;;;;;;;43.85;40.17;;;23.80;64.90;;;;;;5051425;28;20037;-79
2022/08/18 10:18:33;;;;;;;45.15;41.45;;;23.80;65.60;;;;;;5053152;28;20435;-79
2022/08/18 10:21:16;;;;;;;46.90;43.28;;;23.70;65.70;;;;;;5051692;28;20036;-76
2022/08/18 10:23:57;;;;;;;45.08;41.35;;;24.00;65.90;;;;;;5051890;28;20052;-76
2022/08/18 10:26:30;;;;;;;44.63;41.17;;;24.10;64.80;;;;;;5051344;28;20033;-79
2022/08/18 10:29:12;;;;;;;47.45;43.47;;;24.10;65.20;;;;;;5052918;28;20025;-79
2022/08/18 10:31:57;;;;;;;43.90;40.45;;;24.10;64.50;;;;;;5050964;28;20384;-79
2022/08/18 10:34:47;;;;;;;47.58;43.97;;;23.90;65.20;;;;;;5052595;28;20029;-79
2022/08/18 10:37:48;;;;;;;46.72;43.08;;;24.00;66.60;;;;;;5031578;28;20037;-79
2022/08/18 10:40:17;;;;;;;49.95;45.88;;;24.30;64.90;;;;;;5006643;28;20033;-79
2022/08/18 10:42:53;;;;;;;53.22;49.03;;;24.40;64.10;;;;;;5013360;28;20374;-79
2022/08/18 10:45:26;;;;;;;48.08;44.45;;;24.60;64.50;;;;;;5013353;28;20032;-76
2022/08/18 10:48:17;;;;;;;45.58;41.95;;;24.70;62.40;;;;;;4996659;28;20056;-76
2022/08/18 10:51:07;;;;;;;46.97;43.25;;;24.70;62.70;;;;;;4999257;28;20037;-76
2022/08/18 10:53:35;;;;;;;45.97;42.33;;;24.50;63.10;;;;;;4999049;28;20037;-79
2022/08/18 10:56:08;;;;;;;48.90;45.10;;;24.40;62.90;;;;;;5013060;28;20484;-79
2022/08/18 10:59:12;;;;;;;53.03;49.10;;;24.60;64.10;;;;;;5012556;28;20409;-76
2022/08/18 11:02:01;;;;;;;53.35;49.20;;;24.90;62.60;;;;;;4953973;28;20039;-79
2022/08/18 11:04:30;;;;;;;48.28;44.30;;;25.20;60.80;;;;;;4971026;28;20045;-76
2022/08/18 11:07:21;;;;;;;49.85;45.83;;;24.90;61.90;;;;;;4971033;28;20035;-76
2022/08/18 11:09:50;;;;;;;48.15;44.05;;;24.90;61.60;;;;;;4957313;28;20046;-77
2022/08/18 11:12:52;;;;;;;45.45;42.00;;;25.00;61.80;;;;;;4954778;28;20035;-77
2022/08/18 11:15:26;;;;;;;45.38;41.75;;;25.00;61.90;;;;;;4978108;28;20599;-77
2022/08/18 11:17:52;;;;;;;46.17;42.28;;;25.10;61.60;;;;;;4977802;28;20050;-76
2022/08/18 11:20:20;;;;;;;48.33;44.65;;;25.10;61.20;;;;;;4993491;28;20413;-79
2022/08/18 11:22:54;;;;;;;54.25;50.08;;;25.30;62.20;;;;;;4977167;28;20513;-77
2022/08/18 11:25:26;;;;;;;49.30;45.50;;;25.40;60.50;;;;;;4977453;28;20149;-79
2022/08/18 11:27:52;;;;;;;54.65;50.63;;;25.50;60.70;;;;;;4993294;28;20409;-79
2022/08/18 11:30:18;;;;;;;50.95;47.13;;;25.60;60.60;;;;;;4976710;28;20026;-79
2022/08/18 11:32:44;;;;;;;36.60;33.58;;;25.80;59.80;;;;;;5010503;28;20483;-79
2022/08/18 11:35:13;;;;;;;37.03;34.10;;;25.90;58.60;;;;;;5033714;28;20033;-79
2022/08/18 11:37:55;;;;;;;36.50;33.80;;;25.80;58.60;;;;;;5032971;28;20049;-76
2022/08/18 11:40:34;;;;;;;34.45;31.85;;;25.90;57.90;;;;;;5050177;28;20379;-79
2022/08/18 11:43:09;;;;;;;39.25;36.42;;;25.80;57.20;;;;;;5049888;28;20056;-76
2022/08/18 11:45:53;;;;;;;40.35;37.55;;;25.90;57.90;;;;;;5031853;28;20370;-79
2022/08/18 11:48:28;;;;;;;53.35;49.92;;;26.20;58.00;;;;;;5033403;28;20045;-79
2022/08/18 11:50:54;;;;;;;57.08;53.50;;;26.20;57.10;;;;;;5049619;28;20033;-79
2022/08/18 11:53:32;;;;;;;69.60;65.20;;;26.30;56.90;;;;;;5049545;28;20045;-79
2022/08/18 11:56:19;;;;;;;40.75;37.95;;;26.30;57.80;;;;;;5049602;28;20032;-79
2022/08/18 11:58:55;;;;;;;42.58;39.35;;;26.40;56.50;;;;;;5049898;28;20041;-78
2022/08/18 12:01:30;;;;;;;43.97;41.03;;;26.40;56.50;;;;;;5050705;28;20025;-78
2022/08/18 12:04:13;;;;;;;40.63;37.92;;;26.40;57.10;;;;;;5049747;28;20048;-79
2022/08/18 12:06:50;;;;;;;35.90;33.50;;;26.60;56.10;;;;;;5049633;28;20032;-79
2022/08/18 12:09:19;;;;;;;38.63;35.75;;;26.60;55.30;;;;;;5050156;28;20036;-79
2022/08/18 12:11:55;;;;;;;43.40;40.80;;;26.70;56.00;;;;;;5050819;28;20036;-79
2022/08/18 12:14:27;;;;;;;40.08;37.25;;;27.00;55.90;;;;;;5033071;28;20045;-79
2022/08/18 12:16:53;;;;;;;34.28;31.98;;;27.30;54.10;;;;;;5050469;28;20044;-79
2022/08/18 12:19:20;;;;;;;33.80;31.63;;;27.00;53.30;;;;;;5033344;28;20116;-79
2022/08/18 12:21:56;;;;;;;33.15;31.05;;;26.90;53.40;;;;;;5050443;28;20056;-79
2022/08/18 12:24:32;;;;;;;34.42;32.22;;;26.70;53.90;;;;;;5049675;28;20028;-79
2022/08/18 12:26:58;;;;;;;33.00;30.90;;;26.70;53.70;;;;;;5049538;28;20025;-78
2022/08/18 12:29:24;;;;;;;32.53;30.55;;;26.80;53.20;;;;;;5049756;28;20496;-79
2022/08/18 12:31:53;;;;;;;31.42;29.42;;;26.90;52.70;;;;;;5032137;28;20037;-79
2022/08/18 12:34:22;;;;;;;39.45;37.08;;;26.90;52.90;;;;;;5049733;28;20021;-78
2022/08/18 12:36:50;;;;;;;40.83;38.45;;;27.10;53.40;;;;;;5048998;28;20037;-79
2022/08/18 12:39:16;;;;;;;40.78;38.45;;;27.50;53.00;;;;;;5033072;28;20040;-78
2022/08/18 12:41:42;;;;;;;38.20;35.92;;;27.90;50.70;;;;;;5049464;28;20103;-79
2022/08/18 12:44:09;;;;;;;36.40;34.22;;;27.90;51.80;;;;;;5041540;28;20065;-79
2022/08/18 12:46:35;;;;;;;35.75;33.65;;;27.80;49.20;;;;;;5023016;28;20036;-79
2022/08/18 12:49:02;;;;;;;37.70;35.63;;;27.60;51.10;;;;;;5033126;28;20407;-79
2022/08/18 12:51:28;;;;;;;38.85;36.65;;;27.80;50.60;;;;;;5032042;28;20041;-80
2022/08/18 12:53:54;;;;;;;43.60;41.20;;;28.00;50.00;;;;;;5049428;28;20040;-79
2022/08/18 12:56:24;;;;;;;42.10;39.80;;;28.10;49.90;;;;;;5049413;28;20029;-79
2022/08/18 12:58:50;;;;;;;43.05;40.83;;;28.10;48.20;;;;;;5049351;28;20044;-79
2022/08/18 13:01:17;;;;;;;36.50;34.42;;;28.00;48.30;;;;;;5048757;28;20030;-79
2022/08/18 13:03:47;;;;;;;32.80;30.85;;;28.10;46.50;;;;;;5049355;28;20044;-79
2022/08/18 13:06:13;;;;;;;32.97;30.98;;;27.90;49.50;;;;;;5048961;28;20025;-79
2022/08/18 13:08:40;;;;;;;32.10;30.10;;;28.00;49.80;;;;;;5049413;28;20029;-79
2022/08/18 13:11:09;;;;;;;29.10;27.38;;;27.70;49.30;;;;;;5049255;28;20033;-79
2022/08/18 13:13:39;;;;;;;30.73;28.85;;;27.30;50.20;;;;;;5050564;28;20040;-79
2022/08/18 13:16:08;;;;;;;27.90;26.40;;;27.00;48.80;;;;;;5031994;28;20033;-79